sensor_id;sensor_type;location;lat;lon;timestamp;temperature;humidity
14993;DHT22;7592;51.088;13.732;2023-12-20T00:04:17;7.70;99.90
14993;DHT22;7592;51.088;13.732;2023-12-20T00:09:09;7.70;99.90
14993;DHT22;7592;51.088;13.732;2023-12-20T00:14:02;7.70;99.90
14993;DHT22;7592;51.088;13.732;2023-12-20T00:18:54;7.60;99.90
14993;DHT22;7592;51.088;13.732;2023-12-20T00:23:46;7.60;99.90
14993;DHT22;7592;51.088;13.732;2023-12-20T00:28:38;7.60;99.90
14993;DHT22;7592;51.088;13.732;2023-12-20T00:33:30;7.60;99.90
14993;DHT22;7592;51.088;13.732;2023-12-20T00:38:22;7.50;99.90
14993;DHT22;7592;51.088;13.732;2023-12-20T00:43:15;7.50;99.90
14993;DHT22;7592;51.088;13.732;2023-12-20T00:48:07;7.40;99.90
14993;DHT22;7592;51.088;13.732;2023-12-20T00:52:59;7.40;99.90
14993;DHT22;7592;51.088;13.732;2023-12-20T00:57:52;7.40;99.90
14993;DHT22;7592;51.088;13.732;2023-12-20T01:02:45;7.30;99.90
14993;DHT22;7592;51.088;13.732;2023-12-20T01:07:41;7.20;99.90
14993;DHT22;7592;51.088;13.732;2023-12-20T01:12:33;7.20;99.90
14993;DHT22;7592;51.088;13.732;2023-12-20T01:17:25;7.20;99.90
14993;DHT22;7592;51.088;13.732;2023-12-20T01:22:17;7.20;99.90
14993;DHT22;7592;51.088;13.732;2023-12-20T01:27:10;7.10;99.90
14993;DHT22;7592;51.088;13.732;2023-12-20T01:32:02;7.10;99.90
14993;DHT22;7592;51.088;13.732;2023-12-20T01:36:54;7.10;99.90
14993;DHT22;7592;51.088;13.732;2023-12-20T01:41:46;7.10;99.90
14993;DHT22;7592;51.088;13.732;2023-12-20T01:46:38;7.20;99.90
14993;DHT22;7592;51.088;13.732;2023-12-20T01:51:31;7.10;99.90
14993;DHT22;7592;51.088;13.732;2023-12-20T01:56:25;7.00;99.90
14993;DHT22;7592;51.088;13.732;2023-12-20T02:01:17;7.00;99.90
14993;DHT22;7592;51.088;13.732;2023-12-20T02:12:40;6.90;99.90
14993;DHT22;7592;51.088;13.732;2023-12-20T02:17:34;6.90;99.90
14993;DHT22;7592;51.088;13.732;2023-12-20T02:22:26;6.90;99.90
14993;DHT22;7592;51.088;13.732;2023-12-20T02:27:18;6.90;99.90
14993;DHT22;7592;51.088;13.732;2023-12-20T02:32:11;6.80;99.90
14993;DHT22;7592;51.088;13.732;2023-12-20T02:37:03;6.90;99.90
14993;DHT22;7592;51.088;13.732;2023-12-20T02:41:55;6.90;99.90
14993;DHT22;7592;51.088;13.732;2023-12-20T02:46:48;6.80;99.90
14993;DHT22;7592;51.088;13.732;2023-12-20T02:51:40;6.80;99.90
14993;DHT22;7592;51.088;13.732;2023-12-20T02:56:33;6.90;99.90
14993;DHT22;7592;51.088;13.732;2023-12-20T03:01:25;6.80;99.90
14993;DHT22;7592;51.088;13.732;2023-12-20T03:06:18;6.80;99.90
14993;DHT22;7592;51.088;13.732;2023-12-20T03:11:11;6.90;99.90
14993;DHT22;7592;51.088;13.732;2023-12-20T03:16:10;6.90;99.90
14993;DHT22;7592;51.088;13.732;2023-12-20T03:21:03;6.80;99.90
14993;DHT22;7592;51.088;13.732;2023-12-20T03:25:56;6.80;99.90
14993;DHT22;7592;51.088;13.732;2023-12-20T03:30:48;6.80;99.90
14993;DHT22;7592;51.088;13.732;2023-12-20T03:35:41;6.70;99.90
14993;DHT22;7592;51.088;13.732;2023-12-20T03:40:33;6.80;99.90
14993;DHT22;7592;51.088;13.732;2023-12-20T03:45:25;6.70;99.90
14993;DHT22;7592;51.088;13.732;2023-12-20T03:50:17;6.60;99.90
14993;DHT22;7592;51.088;13.732;2023-12-20T03:55:09;6.70;99.90
14993;DHT22;7592;51.088;13.732;2023-12-20T04:00:02;6.60;99.90
14993;DHT22;7592;51.088;13.732;2023-12-20T04:05:02;6.70;99.90
14993;DHT22;7592;51.088;13.732;2023-12-20T04:09:55;6.70;99.90
14993;DHT22;7592;51.088;13.732;2023-12-20T04:14:48;6.80;99.90
14993;DHT22;7592;51.088;13.732;2023-12-20T04:19:42;6.70;99.90
14993;DHT22;7592;51.088;13.732;2023-12-20T04:24:35;6.80;99.90
14993;DHT22;7592;51.088;13.732;2023-12-20T04:29:27;6.70;99.90
14993;DHT22;7592;51.088;13.732;2023-12-20T04:34:20;6.70;99.90
14993;DHT22;7592;51.088;13.732;2023-12-20T04:39:13;6.70;99.90
14993;DHT22;7592;51.088;13.732;2023-12-20T04:44:06;6.80;99.90
14993;DHT22;7592;51.088;13.732;2023-12-20T04:48:58;6.80;99.90
14993;DHT22;7592;51.088;13.732;2023-12-20T04:53:50;6.80;99.90
14993;DHT22;7592;51.088;13.732;2023-12-20T04:58:42;6.80;99.90
14993;DHT22;7592;51.088;13.732;2023-12-20T05:03:35;6.80;99.90
14993;DHT22;7592;51.088;13.732;2023-12-20T05:08:27;6.70;99.90
14993;DHT22;7592;51.088;13.732;2023-12-20T05:13:19;6.80;99.90
14993;DHT22;7592;51.088;13.732;2023-12-20T05:18:12;6.70;99.90
14993;DHT22;7592;51.088;13.732;2023-12-20T05:23:05;6.80;99.90
14993;DHT22;7592;51.088;13.732;2023-12-20T05:27:57;6.80;99.90
14993;DHT22;7592;51.088;13.732;2023-12-20T05:32:49;6.80;99.90
14993;DHT22;7592;51.088;13.732;2023-12-20T05:37:42;6.80;99.90
14993;DHT22;7592;51.088;13.732;2023-12-20T05:42:34;6.80;99.90
14993;DHT22;7592;51.088;13.732;2023-12-20T05:47:29;6.80;99.90
14993;DHT22;7592;51.088;13.732;2023-12-20T05:52:21;6.80;99.90
14993;DHT22;7592;51.088;13.732;2023-12-20T05:57:14;6.80;99.90
14993;DHT22;7592;51.088;13.732;2023-12-20T06:02:06;6.80;99.90
14993;DHT22;7592;51.088;13.732;2023-12-20T06:06:58;6.80;99.90
14993;DHT22;7592;51.088;13.732;2023-12-20T06:11:51;6.90;99.90
14993;DHT22;7592;51.088;13.732;2023-12-20T06:16:43;6.80;99.90
14993;DHT22;7592;51.088;13.732;2023-12-20T06:21:37;6.90;99.90
14993;DHT22;7592;51.088;13.732;2023-12-20T06:26:30;6.80;99.90
14993;DHT22;7592;51.088;13.732;2023-12-20T06:31:22;6.80;99.90
14993;DHT22;7592;51.088;13.732;2023-12-20T06:36:14;6.80;99.90
14993;DHT22;7592;51.088;13.732;2023-12-20T06:41:06;6.90;99.90
14993;DHT22;7592;51.088;13.732;2023-12-20T06:46:00;6.90;99.90
14993;DHT22;7592;51.088;13.732;2023-12-20T06:50:52;6.90;99.90
14993;DHT22;7592;51.088;13.732;2023-12-20T06:55:44;6.90;99.90
14993;DHT22;7592;51.088;13.732;2023-12-20T07:00:36;6.90;99.90
14993;DHT22;7592;51.088;13.732;2023-12-20T07:05:29;6.80;99.90
14993;DHT22;7592;51.088;13.732;2023-12-20T07:10:20;6.80;99.90
14993;DHT22;7592;51.088;13.732;2023-12-20T07:15:13;6.90;99.90
14993;DHT22;7592;51.088;13.732;2023-12-20T07:20:07;6.90;99.90
14993;DHT22;7592;51.088;13.732;2023-12-20T07:25:02;6.80;99.90
14993;DHT22;7592;51.088;13.732;2023-12-20T07:29:55;6.90;99.90
14993;DHT22;7592;51.088;13.732;2023-12-20T07:34:47;6.90;99.90
14993;DHT22;7592;51.088;13.732;2023-12-20T07:39:40;6.90;99.90
14993;DHT22;7592;51.088;13.732;2023-12-20T07:44:33;6.90;99.90
14993;DHT22;7592;51.088;13.732;2023-12-20T07:49:25;6.90;99.90
14993;DHT22;7592;51.088;13.732;2023-12-20T07:54:17;7.00;99.90
14993;DHT22;7592;51.088;13.732;2023-12-20T07:59:10;6.90;99.90
14993;DHT22;7592;51.088;13.732;2023-12-20T08:04:16;6.60;99.90
14993;DHT22;7592;51.088;13.732;2023-12-20T08:09:08;6.40;99.90
14993;DHT22;7592;51.088;13.732;2023-12-20T08:14:00;6.40;99.90
14993;DHT22;7592;51.088;13.732;2023-12-20T08:18:53;6.50;99.90
14993;DHT22;7592;51.088;13.732;2023-12-20T08:23:45;7.80;99.90
14993;DHT22;7592;51.088;13.732;2023-12-20T08:28:38;8.50;99.90
14993;DHT22;7592;51.088;13.732;2023-12-20T08:33:30;8.50;99.90
14993;DHT22;7592;51.088;13.732;2023-12-20T08:38:22;8.90;99.90
14993;DHT22;7592;51.088;13.732;2023-12-20T08:43:14;11.20;99.90
14993;DHT22;7592;51.088;13.732;2023-12-20T08:48:06;13.20;99.90
14993;DHT22;7592;51.088;13.732;2023-12-20T08:53:00;13.50;99.90
14993;DHT22;7592;51.088;13.732;2023-12-20T08:57:53;13.40;99.90
14993;DHT22;7592;51.088;13.732;2023-12-20T09:02:45;13.00;99.90
14993;DHT22;7592;51.088;13.732;2023-12-20T09:07:37;11.60;99.90
14993;DHT22;7592;51.088;13.732;2023-12-20T09:12:29;10.70;99.90
14993;DHT22;7592;51.088;13.732;2023-12-20T09:17:21;10.20;99.90
14993;DHT22;7592;51.088;13.732;2023-12-20T09:22:15;11.50;99.90
14993;DHT22;7592;51.088;13.732;2023-12-20T09:27:07;14.70;99.90
14993;DHT22;7592;51.088;13.732;2023-12-20T09:31:59;14.20;99.90
14993;DHT22;7592;51.088;13.732;2023-12-20T09:36:51;14.40;99.90
14993;DHT22;7592;51.088;13.732;2023-12-20T09:41:44;14.00;99.90
14993;DHT22;7592;51.088;13.732;2023-12-20T09:46:39;13.10;99.90
14993;DHT22;7592;51.088;13.732;2023-12-20T09:51:35;14.40;99.90
14993;DHT22;7592;51.088;13.732;2023-12-20T09:56:27;15.70;99.90
14993;DHT22;7592;51.088;13.732;2023-12-20T10:01:21;15.00;99.90
14993;DHT22;7592;51.088;13.732;2023-12-20T10:06:13;13.90;99.90
14993;DHT22;7592;51.088;13.732;2023-12-20T10:11:06;13.10;99.90
14993;DHT22;7592;51.088;13.732;2023-12-20T10:15:58;12.30;99.90
14993;DHT22;7592;51.088;13.732;2023-12-20T10:20:54;14.20;99.90
14993;DHT22;7592;51.088;13.732;2023-12-20T10:25:59;16.00;99.90
14993;DHT22;7592;51.088;13.732;2023-12-20T10:30:51;15.70;99.90
14993;DHT22;7592;51.088;13.732;2023-12-20T10:35:44;14.00;99.90
14993;DHT22;7592;51.088;13.732;2023-12-20T10:40:38;13.90;99.90
14993;DHT22;7592;51.088;13.732;2023-12-20T10:45:31;15.20;99.90
14993;DHT22;7592;51.088;13.732;2023-12-20T10:50:23;14.80;99.90
14993;DHT22;7592;51.088;13.732;2023-12-20T10:55:16;15.00;99.90
14993;DHT22;7592;51.088;13.732;2023-12-20T11:00:13;16.80;96.20
14993;DHT22;7592;51.088;13.732;2023-12-20T11:15:06;19.10;83.60
14993;DHT22;7592;51.088;13.732;2023-12-20T11:24:54;16.10;89.20
14993;DHT22;7592;51.088;13.732;2023-12-20T11:29:55;13.70;94.10
14993;DHT22;7592;51.088;13.732;2023-12-20T11:34:48;12.00;99.80
14993;DHT22;7592;51.088;13.732;2023-12-20T11:39:43;11.20;99.90
14993;DHT22;7592;51.088;13.732;2023-12-20T11:44:37;10.60;99.90
14993;DHT22;7592;51.088;13.732;2023-12-20T11:49:29;10.30;99.90
14993;DHT22;7592;51.088;13.732;2023-12-20T11:54:23;10.20;99.90
14993;DHT22;7592;51.088;13.732;2023-12-20T11:59:15;11.10;99.90
14993;DHT22;7592;51.088;13.732;2023-12-20T12:04:15;10.90;99.90
14993;DHT22;7592;51.088;13.732;2023-12-20T12:09:09;10.40;99.90
14993;DHT22;7592;51.088;13.732;2023-12-20T12:14:02;10.20;99.90
14993;DHT22;7592;51.088;13.732;2023-12-20T12:18:58;10.10;99.90
14993;DHT22;7592;51.088;13.732;2023-12-20T12:23:50;10.10;99.90
14993;DHT22;7592;51.088;13.732;2023-12-20T12:28:43;10.00;99.90
14993;DHT22;7592;51.088;13.732;2023-12-20T12:33:35;9.80;99.90
14993;DHT22;7592;51.088;13.732;2023-12-20T12:38:27;10.10;99.90
14993;DHT22;7592;51.088;13.732;2023-12-20T12:43:19;10.50;99.90
14993;DHT22;7592;51.088;13.732;2023-12-20T12:48:12;10.80;99.90
14993;DHT22;7592;51.088;13.732;2023-12-20T12:53:04;11.20;99.90
14993;DHT22;7592;51.088;13.732;2023-12-20T12:57:56;11.50;99.90
14993;DHT22;7592;51.088;13.732;2023-12-20T13:02:49;11.40;99.90
14993;DHT22;7592;51.088;13.732;2023-12-20T13:07:41;11.10;99.90
14993;DHT22;7592;51.088;13.732;2023-12-20T13:12:37;11.00;99.90
14993;DHT22;7592;51.088;13.732;2023-12-20T13:17:30;10.80;99.90
14993;DHT22;7592;51.088;13.732;2023-12-20T13:22:24;10.80;99.90
14993;DHT22;7592;51.088;13.732;2023-12-20T13:27:16;10.60;99.90
14993;DHT22;7592;51.088;13.732;2023-12-20T13:32:08;10.50;99.90
14993;DHT22;7592;51.088;13.732;2023-12-20T13:37:01;10.30;99.90
14993;DHT22;7592;51.088;13.732;2023-12-20T13:41:53;10.30;99.90
14993;DHT22;7592;51.088;13.732;2023-12-20T13:46:48;10.20;99.90
14993;DHT22;7592;51.088;13.732;2023-12-20T13:51:41;10.20;99.90
14993;DHT22;7592;51.088;13.732;2023-12-20T13:56:34;10.10;99.90
14993;DHT22;7592;51.088;13.732;2023-12-20T14:01:43;9.80;99.90
14993;DHT22;7592;51.088;13.732;2023-12-20T14:06:35;9.70;99.90
14993;DHT22;7592;51.088;13.732;2023-12-20T14:11:27;9.60;99.90
14993;DHT22;7592;51.088;13.732;2023-12-20T14:16:19;9.40;99.90
14993;DHT22;7592;51.088;13.732;2023-12-20T14:21:11;9.10;99.90
14993;DHT22;7592;51.088;13.732;2023-12-20T14:26:03;9.00;99.90
14993;DHT22;7592;51.088;13.732;2023-12-20T14:30:56;8.70;99.90
14993;DHT22;7592;51.088;13.732;2023-12-20T14:35:48;8.60;99.90
14993;DHT22;7592;51.088;13.732;2023-12-20T14:40:40;8.50;99.90
14993;DHT22;7592;51.088;13.732;2023-12-20T14:45:32;8.40;99.90
14993;DHT22;7592;51.088;13.732;2023-12-20T14:50:25;8.50;99.90
14993;DHT22;7592;51.088;13.732;2023-12-20T14:55:17;8.60;99.90
14993;DHT22;7592;51.088;13.732;2023-12-20T15:00:09;8.60;99.90
14993;DHT22;7592;51.088;13.732;2023-12-20T15:05:01;8.70;99.90
14993;DHT22;7592;51.088;13.732;2023-12-20T15:09:54;8.70;99.90
14993;DHT22;7592;51.088;13.732;2023-12-20T15:14:46;8.60;99.90
14993;DHT22;7592;51.088;13.732;2023-12-20T15:19:38;8.50;99.90
14993;DHT22;7592;51.088;13.732;2023-12-20T15:24:30;8.50;99.90
14993;DHT22;7592;51.088;13.732;2023-12-20T15:29:30;8.40;99.90
14993;DHT22;7592;51.088;13.732;2023-12-20T15:34:23;8.40;99.90
14993;DHT22;7592;51.088;13.732;2023-12-20T15:39:15;8.40;99.90
14993;DHT22;7592;51.088;13.732;2023-12-20T15:44:08;8.50;99.90
14993;DHT22;7592;51.088;13.732;2023-12-20T15:49:00;8.40;99.90
14993;DHT22;7592;51.088;13.732;2023-12-20T15:53:53;8.40;99.90
14993;DHT22;7592;51.088;13.732;2023-12-20T15:58:45;8.50;99.90
14993;DHT22;7592;51.088;13.732;2023-12-20T16:03:40;8.50;99.90
14993;DHT22;7592;51.088;13.732;2023-12-20T16:08:42;8.50;99.90
14993;DHT22;7592;51.088;13.732;2023-12-20T16:13:34;8.40;99.90
14993;DHT22;7592;51.088;13.732;2023-12-20T16:18:26;8.40;99.90
14993;DHT22;7592;51.088;13.732;2023-12-20T16:23:20;8.50;99.90
14993;DHT22;7592;51.088;13.732;2023-12-20T16:28:12;8.50;99.90
14993;DHT22;7592;51.088;13.732;2023-12-20T16:33:04;8.50;99.90
14993;DHT22;7592;51.088;13.732;2023-12-20T16:37:57;8.40;99.90
14993;DHT22;7592;51.088;13.732;2023-12-20T16:42:49;8.40;99.90
14993;DHT22;7592;51.088;13.732;2023-12-20T16:47:41;8.40;99.90
14993;DHT22;7592;51.088;13.732;2023-12-20T16:52:33;8.30;99.90
14993;DHT22;7592;51.088;13.732;2023-12-20T16:57:26;8.30;99.90
14993;DHT22;7592;51.088;13.732;2023-12-20T17:02:18;8.40;99.90
14993;DHT22;7592;51.088;13.732;2023-12-20T17:07:10;8.30;99.90
14993;DHT22;7592;51.088;13.732;2023-12-20T17:12:02;8.30;99.90
14993;DHT22;7592;51.088;13.732;2023-12-20T17:16:55;8.40;99.90
14993;DHT22;7592;51.088;13.732;2023-12-20T17:21:47;8.20;99.90
14993;DHT22;7592;51.088;13.732;2023-12-20T17:26:39;8.10;99.90
14993;DHT22;7592;51.088;13.732;2023-12-20T17:31:31;8.00;99.90
14993;DHT22;7592;51.088;13.732;2023-12-20T17:36:23;8.00;99.90
14993;DHT22;7592;51.088;13.732;2023-12-20T17:41:15;7.90;99.90
14993;DHT22;7592;51.088;13.732;2023-12-20T17:46:07;7.90;99.90
14993;DHT22;7592;51.088;13.732;2023-12-20T17:50:59;7.80;99.90
14993;DHT22;7592;51.088;13.732;2023-12-20T17:55:52;7.70;99.90
14993;DHT22;7592;51.088;13.732;2023-12-20T18:00:45;7.60;99.90
14993;DHT22;7592;51.088;13.732;2023-12-20T18:05:37;7.50;99.90
14993;DHT22;7592;51.088;13.732;2023-12-20T18:10:29;7.50;99.90
14993;DHT22;7592;51.088;13.732;2023-12-20T18:15:25;7.40;99.90
14993;DHT22;7592;51.088;13.732;2023-12-20T18:20:19;7.40;99.90
14993;DHT22;7592;51.088;13.732;2023-12-20T18:25:11;7.40;99.90
14993;DHT22;7592;51.088;13.732;2023-12-20T18:30:04;7.30;99.90
14993;DHT22;7592;51.088;13.732;2023-12-20T18:35:07;7.20;99.90
14993;DHT22;7592;51.088;13.732;2023-12-20T18:40:02;7.10;99.90
14993;DHT22;7592;51.088;13.732;2023-12-20T18:44:55;7.00;99.90
14993;DHT22;7592;51.088;13.732;2023-12-20T18:49:47;7.00;99.90
14993;DHT22;7592;51.088;13.732;2023-12-20T18:54:40;7.00;99.90
14993;DHT22;7592;51.088;13.732;2023-12-20T18:59:32;7.00;99.90
14993;DHT22;7592;51.088;13.732;2023-12-20T19:04:24;7.10;99.90
14993;DHT22;7592;51.088;13.732;2023-12-20T19:09:16;7.10;99.90
14993;DHT22;7592;51.088;13.732;2023-12-20T19:14:08;7.10;99.90
14993;DHT22;7592;51.088;13.732;2023-12-20T19:19:03;7.00;99.90
14993;DHT22;7592;51.088;13.732;2023-12-20T19:23:55;7.00;99.90
14993;DHT22;7592;51.088;13.732;2023-12-20T19:28:48;7.00;99.90
14993;DHT22;7592;51.088;13.732;2023-12-20T19:33:40;7.00;99.90
14993;DHT22;7592;51.088;13.732;2023-12-20T19:38:34;7.00;99.90
14993;DHT22;7592;51.088;13.732;2023-12-20T19:43:27;6.90;99.90
14993;DHT22;7592;51.088;13.732;2023-12-20T19:48:19;6.90;99.90
14993;DHT22;7592;51.088;13.732;2023-12-20T19:53:11;6.90;99.90
14993;DHT22;7592;51.088;13.732;2023-12-20T19:58:03;6.90;99.90
14993;DHT22;7592;51.088;13.732;2023-12-20T20:02:56;7.00;99.90
14993;DHT22;7592;51.088;13.732;2023-12-20T20:07:48;6.90;99.90
14993;DHT22;7592;51.088;13.732;2023-12-20T20:12:40;6.90;99.90
14993;DHT22;7592;51.088;13.732;2023-12-20T20:17:32;6.90;99.90
14993;DHT22;7592;51.088;13.732;2023-12-20T20:22:25;6.90;99.90
14993;DHT22;7592;51.088;13.732;2023-12-20T20:27:17;6.90;99.90
14993;DHT22;7592;51.088;13.732;2023-12-20T20:32:11;6.90;99.90
14993;DHT22;7592;51.088;13.732;2023-12-20T20:37:03;6.90;99.90
14993;DHT22;7592;51.088;13.732;2023-12-20T20:41:55;6.90;99.90
14993;DHT22;7592;51.088;13.732;2023-12-20T20:46:47;7.00;99.90
14993;DHT22;7592;51.088;13.732;2023-12-20T20:51:40;7.00;99.90
14993;DHT22;7592;51.088;13.732;2023-12-20T20:56:32;7.00;99.90
14993;DHT22;7592;51.088;13.732;2023-12-20T21:01:26;7.10;99.90
14993;DHT22;7592;51.088;13.732;2023-12-20T21:06:18;7.10;99.90
14993;DHT22;7592;51.088;13.732;2023-12-20T21:11:11;7.20;99.90
14993;DHT22;7592;51.088;13.732;2023-12-20T21:16:03;7.20;99.90
14993;DHT22;7592;51.088;13.732;2023-12-20T21:20:55;7.20;99.90
14993;DHT22;7592;51.088;13.732;2023-12-20T21:25:47;7.10;99.90
14993;DHT22;7592;51.088;13.732;2023-12-20T21:30:39;7.20;99.90
14993;DHT22;7592;51.088;13.732;2023-12-20T21:35:31;7.30;99.90
14993;DHT22;7592;51.088;13.732;2023-12-20T21:40:24;7.30;99.90
14993;DHT22;7592;51.088;13.732;2023-12-20T21:45:16;7.30;99.90
14993;DHT22;7592;51.088;13.732;2023-12-20T21:50:09;7.20;99.90
14993;DHT22;7592;51.088;13.732;2023-12-20T21:55:01;7.20;99.90
14993;DHT22;7592;51.088;13.732;2023-12-20T21:59:54;7.30;99.90
14993;DHT22;7592;51.088;13.732;2023-12-20T22:04:47;7.30;99.90
14993;DHT22;7592;51.088;13.732;2023-12-20T22:09:39;7.30;99.90
14993;DHT22;7592;51.088;13.732;2023-12-20T22:14:31;7.50;99.90
14993;DHT22;7592;51.088;13.732;2023-12-20T22:19:24;7.40;99.90
14993;DHT22;7592;51.088;13.732;2023-12-20T22:24:16;7.30;99.90
14993;DHT22;7592;51.088;13.732;2023-12-20T22:29:08;7.40;99.90
14993;DHT22;7592;51.088;13.732;2023-12-20T22:34:00;7.40;99.90
14993;DHT22;7592;51.088;13.732;2023-12-20T22:38:53;7.50;99.90
14993;DHT22;7592;51.088;13.732;2023-12-20T22:43:45;7.50;99.90
14993;DHT22;7592;51.088;13.732;2023-12-20T22:48:38;7.50;99.90
14993;DHT22;7592;51.088;13.732;2023-12-20T22:53:30;7.50;99.90
14993;DHT22;7592;51.088;13.732;2023-12-20T22:58:22;7.50;99.90
14993;DHT22;7592;51.088;13.732;2023-12-20T23:03:15;7.40;99.90
14993;DHT22;7592;51.088;13.732;2023-12-20T23:08:08;7.50;99.90
14993;DHT22;7592;51.088;13.732;2023-12-20T23:13:02;7.60;99.90
14993;DHT22;7592;51.088;13.732;2023-12-20T23:17:54;7.60;99.90
14993;DHT22;7592;51.088;13.732;2023-12-20T23:22:48;7.60;99.90
14993;DHT22;7592;51.088;13.732;2023-12-20T23:27:40;7.70;99.90
14993;DHT22;7592;51.088;13.732;2023-12-20T23:32:39;7.70;99.90
14993;DHT22;7592;51.088;13.732;2023-12-20T23:37:31;7.60;99.90
14993;DHT22;7592;51.088;13.732;2023-12-20T23:42:23;7.70;99.90
14993;DHT22;7592;51.088;13.732;2023-12-20T23:47:16;7.70;99.90
14993;DHT22;7592;51.088;13.732;2023-12-20T23:52:08;7.80;99.90
14993;DHT22;7592;51.088;13.732;2023-12-20T23:57:01;7.70;99.90
